Time;durP1;ratioP1;P1;durP2;ratioP2;P2;SDS_P1;SDS_P2;PMS_P1;PMS_P2;Temp;Humidity;BMP_temperature;BMP_pressure;BME280_temperature;BME280_humidity;BME280_pressure;Samples;Min_cycle;Max_cycle;Signal;HPM_P1;HPM_P2
2024/01/04 00:01:52;;;;;;;3.13;1.00;;;;;;;;;;5010046;28;20089;-55
2024/01/04 00:04:18;;;;;;;4.00;0.90;;;;;;;;;;5011438;28;20562;-56
2024/01/04 00:06:44;;;;;;;6.97;1.00;;;;;;;;;;5011078;28;20160;-57
2024/01/04 00:09:11;;;;;;;4.07;1.15;;;6.20;99.90;;;;;;5010139;28;20076;-57
2024/01/04 00:11:37;;;;;;;7.82;1.30;;;;;;;;;;5009607;28;20044;-58
2024/01/04 00:14:07;;;;;;;5.72;1.08;;;;;;;;;;5011576;28;20042;-55
2024/01/04 00:16:33;;;;;;;5.10;1.00;;;;;;;;;;5011974;28;20096;-57
2024/01/04 00:18:59;;;;;;;3.83;1.35;;;;;;;;;;5011024;28;20500;-56
2024/01/04 00:21:25;;;;;;;4.03;1.00;;;;;;;;;;5009849;28;20039;-56
2024/01/04 00:23:51;;;;;;;4.47;1.10;;;;;;;;;;5011055;28;20113;-57
2024/01/04 00:26:17;;;;;;;6.70;1.08;;;;;;;;;;5010117;28;20134;-53
2024/01/04 00:28:43;;;;;;;4.43;0.95;;;;;;;;;;5010807;28;20477;-55
2024/01/04 00:31:09;;;;;;;3.30;1.00;;;;;;;;;;5009314;28;20088;-57
2024/01/04 00:33:35;;;;;;;6.30;1.33;;;;;;;;;;5001319;23;20068;-52
2024/01/04 00:36:01;;;;;;;6.30;1.20;;;;;;;;;;4985432;28;20057;-53
2024/01/04 00:38:27;;;;;;;3.90;1.10;;;;;;;;;;4987942;28;20061;-50
2024/01/04 00:40:53;;;;;;;5.88;1.20;;;6.00;99.90;;;;;;4989810;28;20046;-50
2024/01/04 00:43:19;;;;;;;6.50;1.35;;;;;;;;;;4986499;28;20042;-50
2024/01/04 00:45:45;;;;;;;5.47;1.73;;;;;;;;;;4989579;28;20355;-50
2024/01/04 00:48:11;;;;;;;5.22;1.10;;;;;;;;;;4985462;28;20057;-50
2024/01/04 00:50:37;;;;;;;3.85;1.00;;;;;;;;;;4989154;28;20417;-51
2024/01/04 00:53:03;;;;;;;4.35;1.05;;;;;;;;;;4988652;28;20082;-49
2024/01/04 00:55:29;;;;;;;7.10;1.35;;;;;;;;;;4988854;28;20042;-49
2024/01/04 00:57:55;;;;;;;5.70;1.05;;;;;;;;;;4988867;28;20042;-50
2024/01/04 01:00:21;;;;;;;4.63;1.00;;;;;;;;;;4988916;28;20398;-50
2024/01/04 01:02:47;;;;;;;8.30;1.42;;;5.80;99.90;;;;;;4987379;28;20046;-50
2024/01/04 01:05:13;;;;;;;6.03;1.10;;;;;;;;;;4986189;28;20041;-52
2024/01/04 01:07:39;;;;;;;6.35;1.00;;;;;;;;;;4988467;28;20474;-52
2024/01/04 01:10:05;;;;;;;4.72;1.40;;;;;;;;;;4989229;28;20050;-50
2024/01/04 01:12:31;;;;;;;4.65;1.10;;;;;;;;;;4987610;28;20512;-49
2024/01/04 01:14:57;;;;;;;6.55;1.17;;;;;;;;;;4984642;28;20085;-50
2024/01/04 01:17:23;;;;;;;6.93;1.08;;;;;;;;;;4987752;28;20069;-50
2024/01/04 01:19:49;;;;;;;4.55;1.30;;;;;;;;;;4988092;28;20038;-52
2024/01/04 01:22:14;;;;;;;5.75;1.05;;;5.80;99.90;;;;;;4988493;28;20088;-52
2024/01/04 01:24:40;;;;;;;4.75;1.00;;;;;;;;;;4986318;28;20034;-49
2024/01/04 01:27:07;;;;;;;6.43;1.50;;;;;;;;;;4987562;28;20482;-53
2024/01/04 01:29:33;;;;;;;3.75;1.00;;;;;;;;;;4988181;28;20034;-51
2024/01/04 01:31:59;;;;;;;5.80;1.45;;;;;;;;;;4987427;28;20049;-53
2024/01/04 01:34:24;;;;;;;5.85;1.55;;;;;;;;;;4988217;28;20053;-50
2024/01/04 01:36:51;;;;;;;5.85;1.27;;;;;;;;;;4987221;28;20137;-51
2024/01/04 01:39:17;;;;;;;7.20;1.10;;;;;;;;;;4987867;28;20108;-52
2024/01/04 01:41:42;;;;;;;5.47;1.15;;;5.60;99.90;;;;;;4982114;28;20042;-51
2024/01/04 01:44:08;;;;;;;4.45;1.55;;;;;;;;;;4988756;28;20401;-52
2024/01/04 01:46:34;;;;;;;5.97;1.17;;;;;;;;;;4985325;28;20039;-55
2024/01/04 01:49:00;;;;;;;4.63;1.10;;;;;;;;;;4988709;28;20044;-55
2024/01/04 01:51:26;;;;;;;7.20;1.35;;;;;;;;;;4985779;28;20087;-54
2024/01/04 01:53:52;;;;;;;4.80;1.08;;;;;;;;;;4988964;28;20060;-54
2024/01/04 01:56:19;;;;;;;3.67;1.15;;;;;;;;;;4987355;28;20530;-52
2024/01/04 01:58:46;;;;;;;4.40;2.03;;;;;;;;;;4985812;28;20069;-51
2024/01/04 02:01:12;;;;;;;4.97;1.20;;;;;;;;;;4988378;28;20046;-50
2024/01/04 02:03:37;;;;;;;5.13;1.00;;;5.60;99.90;;;;;;4984732;28;20074;-51
2024/01/04 02:06:04;;;;;;;3.45;0.90;;;;;;;;;;4988719;28;20093;-53
2024/01/04 02:08:30;;;;;;;2.92;0.98;;;;;;;;;;4983815;28;20149;-54
2024/01/04 02:10:56;;;;;;;4.38;1.00;;;;;;;;;;4986194;28;20050;-52
2024/01/04 02:13:22;;;;;;;2.55;0.80;;;;;;;;;;4983761;28;20383;-50
2024/01/04 02:15:48;;;;;;;3.10;0.98;;;;;;;;;;4982086;28;20401;-50
2024/01/04 02:18:15;;;;;;;6.82;1.35;;;;;;;;;;4986751;28;20096;-52
2024/01/04 02:20:43;;;;;;;2.60;0.95;;;;;;;;;;4984275;28;20129;-50
2024/01/04 02:23:14;;;;;;;4.78;1.23;;;;;;;;;;4986515;28;20139;-53
2024/01/04 02:25:40;;;;;;;3.20;0.90;;;;;;;;;;4989254;28;20042;-50
2024/01/04 02:28:07;;;;;;;4.40;1.38;;;;;;;;;;4987120;28;20109;-51
2024/01/04 02:30:33;;;;;;;5.93;1.30;;;;;;;;;;4988964;28;20073;-51
2024/01/04 02:33:00;;;;;;;5.22;1.08;;;;;;;;;;4983933;28;20074;-53
2024/01/04 02:35:26;;;;;;;4.30;1.35;;;;;;;;;;4988511;28;20569;-53
2024/01/04 02:37:52;;;;;;;6.57;2.33;;;;;;;;;;4986372;28;21663;-54
2024/01/04 02:40:18;;;;;;;5.93;1.30;;;;;;;;;;4988884;28;20042;-51
2024/01/04 02:42:45;;;;;;;5.05;1.13;;;;;;;;;;4985323;28;20038;-54
2024/01/04 02:45:11;;;;;;;4.32;1.55;;;;;;;;;;4988171;28;20058;-53
2024/01/04 02:47:37;;;;;;;4.35;1.00;;;;;;;;;;4984563;28;20067;-53
2024/01/04 02:50:03;;;;;;;5.20;1.58;;;;;;;;;;4989531;28;20044;-51
2024/01/04 02:52:29;;;;;;;3.08;1.15;;;;;;;;;;4986102;28;20417;-52
2024/01/04 02:54:55;;;;;;;2.50;0.88;;;;;;;;;;4990975;28;20126;-50
2024/01/04 02:57:21;;;;;;;2.75;0.95;;;;;;;;;;4990067;28;20125;-51
2024/01/04 02:59:47;;;;;;;4.90;0.95;;;;;;;;;;4987290;28;20563;-51
2024/01/04 03:02:15;;;;;;;5.18;1.02;;;4.90;99.90;;;;;;4990716;28;20457;-50
2024/01/04 03:04:42;;;;;;;4.50;0.85;;;4.90;99.90;;;;;;4990593;28;20061;-50
2024/01/04 03:07:08;;;;;;;3.95;1.05;;;;;;;;;;4990198;28;20042;-53
2024/01/04 03:09:34;;;;;;;5.00;1.08;;;;;;;;;;4988836;28;20041;-50
2024/01/04 03:12:00;;;;;;;5.07;1.40;;;;;;;;;;4990578;28;20042;-53
2024/01/04 03:14:25;;;;;;;6.75;1.17;;;4.90;99.90;;;;;;4990230;28;20040;-51
2024/01/04 03:16:51;;;;;;;6.95;1.20;;;;;;;;;;4988523;28;20038;-51
2024/01/04 03:19:17;;;;;;;4.45;1.20;;;;;;;;;;4976686;28;20438;-52
2024/01/04 03:21:43;;;;;;;7.28;1.67;;;;;;;;;;4985205;28;20053;-51
2024/01/04 03:24:09;;;;;;;5.47;1.63;;;;;;;;;;4981483;28;20070;-52
2024/01/04 03:26:35;;;;;;;4.32;0.90;;;;;;;;;;4987546;28;20139;-53
2024/01/04 03:29:02;;;;;;;3.72;1.08;;;;;;;;;;4985498;28;20421;-50
2024/01/04 03:31:28;;;;;;;6.75;1.17;;;;;;;;;;4987026;28;20042;-50
2024/01/04 03:33:54;;;;;;;5.57;1.08;;;;;;;;;;4988493;28;20092;-51
2024/01/04 03:36:20;;;;;;;7.72;1.40;;;;;;;;;;4989988;28;20173;-50
2024/01/04 03:38:46;;;;;;;4.03;1.20;;;;;;;;;;4987124;28;20042;-50
2024/01/04 03:41:12;;;;;;;4.07;1.00;;;;;;;;;;4989568;28;20049;-50
2024/01/04 03:43:38;;;;;;;4.95;1.15;;;4.90;99.90;;;;;;4989626;28;20038;-54
2024/01/04 03:46:08;;;;;;;5.47;0.98;;;5.20;99.90;;;;;;4990353;28;20046;-54
2024/01/04 03:48:34;;;;;;;7.28;1.13;;;;;;;;;;4987706;28;20522;-51
2024/01/04 03:51:01;;;;;;;3.15;1.08;;;;;;;;;;4989630;28;20091;-50
2024/01/04 03:53:27;;;;;;;10.25;2.20;;;;;;;;;;4989233;28;20092;-51
2024/01/04 03:55:53;;;;;;;4.72;1.02;;;;;;;;;;4990421;28;20049;-50
2024/01/04 03:58:19;;;;;;;4.40;0.95;;;;;;;;;;4988897;28;20417;-52
2024/01/04 04:00:45;;;;;;;4.97;1.17;;;;;;;;;;4993033;28;20042;-51
2024/01/04 04:03:11;;;;;;;7.18;1.38;;;;;;;;;;4988300;28;20076;-53
2024/01/04 04:05:37;;;;;;;5.50;1.10;;;;;;;;;;4989882;28;20043;-50
2024/01/04 04:08:03;;;;;;;6.72;1.30;;;;;;;;;;4989089;28;20042;-51
2024/01/04 04:10:29;;;;;;;5.45;1.50;;;;;;;;;;4984204;28;20046;-51
2024/01/04 04:12:55;;;;;;;5.65;1.10;;;;;;;;;;4987443;28;20042;-55
2024/01/04 04:15:21;;;;;;;4.18;1.10;;;;;;;;;;4988875;28;20134;-53
2024/01/04 04:17:47;;;;;;;4.68;1.20;;;4.80;99.90;;;;;;4988005;28;20066;-54
2024/01/04 04:20:12;;;;;;;5.13;1.33;;;4.80;99.90;;;;;;4984291;28;20039;-54
2024/01/04 04:22:38;;;;;;;7.20;1.30;;;;;;;;;;4987414;28;20113;-53
2024/01/04 04:25:04;;;;;;;5.80;1.15;;;;;;;;;;4983565;28;20039;-53
2024/01/04 04:27:31;;;;;;;4.50;1.20;;;;;;;;;;4983672;28;20046;-53
2024/01/04 04:29:56;;;;;;;3.67;0.90;;;;;;;;;;4986870;28;20042;-54
2024/01/04 04:32:25;;;;;;;5.88;1.13;;;;;;;;;;4983547;28;20026;-53
2024/01/04 04:34:51;;;;;;;7.05;1.30;;;;;;;;;;4977230;28;20134;-55
2024/01/04 04:37:17;;;;;;;3.80;0.90;;;;;;;;;;4984652;28;20045;-52
2024/01/04 04:39:43;;;;;;;2.85;0.90;;;;;;;;;;4982213;28;20049;-53
2024/01/04 04:42:09;;;;;;;2.80;1.00;;;;;;;;;;4981493;28;20041;-51
2024/01/04 04:44:38;;;;;;;4.85;1.10;;;;;;;;;;4987469;28;20042;-50
2024/01/04 04:47:04;;;;;;;4.85;1.20;;;;;;;;;;4983708;28;20068;-53
2024/01/04 04:49:30;;;;;;;5.68;1.38;;;;;;;;;;4987628;28;20037;-50
2024/01/04 04:51:55;;;;;;;3.67;1.08;;;4.30;99.90;;;;;;4985525;28;20034;-50
2024/01/04 04:54:21;;;;;;;3.65;1.10;;;;;;;;;;4989031;28;20061;-51
2024/01/04 04:56:47;;;;;;;4.60;1.10;;;;;;;;;;4988432;28;20042;-51
2024/01/04 04:59:13;;;;;;;5.32;1.00;;;;;;;;;;4985742;28;20050;-53
2024/01/04 05:01:44;;;;;;;4.13;1.42;;;;;;;;;;4987086;28;20113;-53
2024/01/04 05:04:10;;;;;;;4.50;1.20;;;;;;;;;;4983567;28;20046;-53
2024/01/04 05:06:36;;;;;;;7.65;1.70;;;;;;;;;;4981832;28;20042;-51
2024/01/04 05:09:02;;;;;;;4.72;1.20;;;;;;;;;;4988542;28;20049;-54
2024/01/04 05:11:28;;;;;;;5.30;1.27;;;;;;;;;;4982675;28;20038;-50
2024/01/04 05:13:54;;;;;;;4.25;1.60;;;;;;;;;;4986911;28;20050;-53
2024/01/04 05:16:20;;;;;;;4.68;1.30;;;;;;;;;;4988194;28;20680;-51
2024/01/04 05:18:46;;;;;;;7.47;1.52;;;;;;;;;;4986391;28;20079;-54
2024/01/04 05:21:13;;;;;;;4.50;1.20;;;;;;;;;;4985336;28;20432;-51
2024/01/04 05:23:39;;;;;;;4.80;1.20;;;;;;;;;;4982571;28;20461;-51
2024/01/04 05:26:05;;;;;;;6.18;1.48;;;;;;;;;;4986390;28;20565;-50
2024/01/04 05:28:31;;;;;;;3.85;1.15;;;;;;;;;;4988068;28;20046;-53
2024/01/04 05:30:57;;;;;;;6.30;1.50;;;;;;;;;;4986882;28;20462;-53
2024/01/04 05:33:23;;;;;;;4.50;1.17;;;;;;;;;;4983195;28;20121;-52
2024/01/04 05:35:50;;;;;;;7.13;1.50;;;4.30;99.90;;;;;;4988534;28;20125;-50
2024/01/04 05:38:16;;;;;;;6.40;1.30;;;;;;;;;;4984243;28;20466;-53
2024/01/04 05:40:42;;;;;;;6.10;1.40;;;;;;;;;;4994029;28;20046;-52
2024/01/04 05:43:08;;;;;;;4.40;1.10;;;;;;;;;;4984411;28;20129;-51
2024/01/04 05:45:34;;;;;;;4.85;1.23;;;;;;;;;;4987882;28;20610;-53
2024/01/04 05:48:02;;;;;;;5.50;1.55;;;;;;;;;;4986044;28;20042;-51
2024/01/04 05:50:27;;;;;;;6.03;1.30;;;4.40;99.90;;;;;;4988933;28;20046;-50
2024/01/04 05:52:53;;;;;;;6.93;1.30;;;4.50;99.90;;;;;;4988087;28;20042;-51
2024/01/04 05:55:19;;;;;;;5.50;1.48;;;;;;;;;;4983364;28;20045;-50
2024/01/04 05:57:45;;;;;;;6.65;1.40;;;;;;;;;;4982413;28;20042;-52
2024/01/04 06:00:11;;;;;;;5.85;1.30;;;;;;;;;;4987421;28;20042;-55
2024/01/04 06:02:37;;;;;;;3.85;1.10;;;;;;;;;;4983753;28;20039;-53
2024/01/04 06:05:03;;;;;;;5.07;1.20;;;;;;;;;;4987684;28;20409;-52
2024/01/04 06:07:29;;;;;;;4.35;1.15;;;4.50;99.90;;;;;;4986985;28;20455;-51
2024/01/04 06:09:55;;;;;;;8.13;1.23;;;4.50;99.90;;;;;;4986757;28;20089;-54
2024/01/04 06:12:20;;;;;;;4.93;1.20;;;;;;;;;;4991556;28;20482;-56
2024/01/04 06:14:48;;;;;;;5.30;1.13;;;;;;;;;;4990433;28;20047;-54
2024/01/04 06:17:14;;;;;;;5.90;1.40;;;4.60;99.90;;;;;;4991275;28;20087;-53
2024/01/04 06:19:40;;;;;;;3.85;1.70;;;4.60;99.90;;;;;;4988652;28;20038;-51
2024/01/04 06:22:06;;;;;;;3.17;0.98;;;;;;;;;;4989009;28;20042;-54
2024/01/04 06:24:32;;;;;;;5.72;2.40;;;;;;;;;;4990958;28;20117;-51
2024/01/04 06:26:58;;;;;;;7.95;1.30;;;;;;;;;;4989672;28;20995;-52
2024/01/04 06:29:24;;;;;;;5.75;1.30;;;;;;;;;;4991723;28;20038;-51
2024/01/04 06:31:50;;;;;;;6.18;1.55;;;;;;;;;;4987455;28;20128;-51
2024/01/04 06:34:16;;;;;;;7.20;1.30;;;4.60;99.90;;;;;;4987264;28;20035;-51
2024/01/04 06:36:42;;;;;;;5.05;1.30;;;;;;;;;;4991447;28;20493;-51
2024/01/04 06:39:08;;;;;;;6.40;1.40;;;;;;;;;;4988409;28;20030;-55
2024/01/04 06:41:35;;;;;;;4.82;1.38;;;;;;;;;;4992223;28;20520;-55
2024/01/04 06:44:02;;;;;;;5.97;1.40;;;;;;;;;;4987794;28;20038;-56
2024/01/04 06:46:28;;;;;;;5.15;1.10;;;;;;;;;;4986907;28;20042;-53
2024/01/04 06:48:54;;;;;;;5.18;1.75;;;;;;;;;;4990293;28;20113;-56
2024/01/04 06:51:20;;;;;;;3.63;1.05;;;;;;;;;;4989318;28;20383;-52
2024/01/04 06:53:45;;;;;;;4.25;1.27;;;;;;;;;;4988198;28;20096;-56
2024/01/04 06:56:13;;;;;;;6.05;1.85;;;;;;;;;;4991762;28;20039;-55
2024/01/04 06:58:39;;;;;;;7.07;1.23;;;4.60;99.90;;;;;;4984742;28;20049;-56
2024/01/04 07:01:05;;;;;;;5.13;1.40;;;;;;;;;;4987568;28;20046;-56
2024/01/04 07:03:31;;;;;;;3.90;1.30;;;;;;;;;;4989501;28;20042;-55
2024/01/04 07:05:57;;;;;;;4.13;1.20;;;;;;;;;;4987741;28;20078;-52
2024/01/04 07:08:23;;;;;;;7.07;1.35;;;;;;;;;;4988374;28;20070;-52
2024/01/04 07:10:49;;;;;;;6.80;1.52;;;;;;;;;;4990049;28;20046;-53
2024/01/04 07:13:15;;;;;;;3.95;1.27;;;;;;;;;;4991516;28;20042;-54
2024/01/04 07:15:41;;;;;;;3.85;1.25;;;;;;;;;;4987493;28;20038;-52
2024/01/04 07:18:07;;;;;;;6.05;1.73;;;;;;;;;;4988995;28;20117;-55
2024/01/04 07:20:33;;;;;;;6.10;1.98;;;;;;;;;;4986855;28;20050;-53
2024/01/04 07:22:59;;;;;;;5.03;1.00;;;;;;;;;;4989740;28;20421;-51
2024/01/04 07:25:25;;;;;;;3.60;1.20;;;;;;;;;;4987090;28;20042;-56
2024/01/04 07:27:52;;;;;;;4.45;1.85;;;;;;;;;;4986198;28;20521;-52
2024/01/04 07:30:17;;;;;;;5.10;1.25;;;4.30;99.90;;;;;;4987401;28;20498;-50
2024/01/04 07:32:43;;;;;;;5.43;1.80;;;;;;;;;;4988549;28;20040;-54
2024/01/04 07:35:12;;;;;;;6.40;1.70;;;;;;;;;;4989137;28;20073;-54
2024/01/04 07:37:39;;;;;;;4.90;1.30;;;;;;;;;;4988418;28;20576;-54
2024/01/04 07:40:05;;;;;;;3.92;0.95;;;;;;;;;;4985090;28;20398;-54
2024/01/04 07:42:31;;;;;;;4.70;1.10;;;;;;;;;;4988424;28;20081;-55
2024/01/04 07:44:57;;;;;;;4.80;1.23;;;;;;;;;;4988980;28;20045;-56
2024/01/04 07:47:23;;;;;;;5.47;1.30;;;;;;;;;;4989436;28;20042;-55
2024/01/04 07:49:49;;;;;;;3.80;1.23;;;;;;;;;;4983370;28;20046;-55
2024/01/04 07:52:15;;;;;;;5.75;1.42;;;4.30;99.90;;;;;;4985252;28;20042;-54
2024/01/04 07:54:41;;;;;;;6.05;1.60;;;;;;;;;;4978726;28;20046;-54
2024/01/04 07:57:07;;;;;;;7.38;1.30;;;;;;;;;;4980221;28;20046;-54
2024/01/04 07:59:33;;;;;;;5.35;1.20;;;;;;;;;;4980042;28;20453;-55
2024/01/04 08:01:59;;;;;;;7.82;1.48;;;;;;;;;;4987040;28;20104;-54
2024/01/04 08:04:25;;;;;;;7.20;1.50;;;;;;;;;;4986558;28;20070;-54
2024/01/04 08:06:50;;;;;;;4.90;1.23;;;4.20;99.90;;;;;;4986062;28;20085;-55
2024/01/04 08:09:18;;;;;;;4.72;1.30;;;;;;;;;;4986591;28;20066;-52
2024/01/04 08:11:44;;;;;;;5.60;1.45;;;;;;;;;;4984915;28;20069;-55
2024/01/04 08:14:10;;;;;;;6.65;1.30;;;;;;;;;;4985894;28;20034;-54
2024/01/04 08:16:36;;;;;;;5.13;1.48;;;;;;;;;;4947619;28;20047;-55
2024/01/04 08:19:02;;;;;;;5.32;1.50;;;;;;;;;;4974014;28;20046;-55
2024/01/04 08:21:28;;;;;;;6.13;1.73;;;;;;;;;;4981265;28;21244;-54
2024/01/04 08:23:54;;;;;;;6.05;1.80;;;;;;;;;;4980947;28;20039;-55
2024/01/04 08:26:20;;;;;;;5.13;1.50;;;;;;;;;;4984054;28;20066;-54
2024/01/04 08:28:46;;;;;;;10.13;1.92;;;;;;;;;;4982311;28;20073;-55
2024/01/04 08:31:12;;;;;;;5.78;1.60;;;;;;;;;;4976388;28;20121;-55
2024/01/04 08:34:01;;;;;;;6.97;1.70;;;;;;;;;;4979991;28;20046;-54
2024/01/04 08:36:27;;;;;;;5.18;1.40;;;;;;;;;;4958008;28;20841;-56
2024/01/04 08:38:53;;;;;;;7.55;1.50;;;4.30;99.90;;;;;;4972468;28;20131;-52
2024/01/04 08:41:19;;;;;;;4.50;1.40;;;;;;;;;;4981350;28;20130;-56
2024/01/04 08:43:45;;;;;;;4.95;1.73;;;;;;;;;;4977873;28;20045;-54
2024/01/04 08:46:11;;;;;;;4.88;1.67;;;;;;;;;;4978419;28;20049;-54
2024/01/04 08:48:37;;;;;;;4.97;1.50;;;;;;;;;;4978008;28;20065;-54
2024/01/04 08:51:03;;;;;;;5.05;1.38;;;;;;;;;;4977663;28;20054;-54
2024/01/04 08:53:29;;;;;;;4.80;1.60;;;;;;;;;;4996853;28;20069;-53
2024/01/04 08:55:55;;;;;;;7.07;1.58;;;;;;;;;;4977300;28;20421;-55
2024/01/04 08:58:21;;;;;;;8.50;2.15;;;;;;;;;;4979459;28;20121;-55
2024/01/04 09:00:47;;;;;;;5.93;1.48;;;;;;;;;;4979053;28;20493;-54
2024/01/04 09:03:13;;;;;;;7.97;1.67;;;;;;;;;;4980100;28;20057;-54
2024/01/04 09:05:39;;;;;;;6.43;1.50;;;;;;;;;;4979594;28;20034;-53
2024/01/04 09:08:05;;;;;;;6.93;1.50;;;;;;;;;;4977745;28;20042;-54
2024/01/04 09:10:32;;;;;;;14.85;2.08;;;;;;;;;;4983066;28;20077;-54
2024/01/04 09:12:58;;;;;;;4.82;1.45;;;;;;;;;;4980518;28;20049;-51
2024/01/04 09:15:25;;;;;;;4.80;1.45;;;;;;;;;;4980040;28;20050;-54
2024/01/04 09:17:51;;;;;;;5.53;1.65;;;;;;;;;;4976777;28;20131;-54
2024/01/04 09:20:17;;;;;;;6.25;1.70;;;;;;;;;;4978615;28;20092;-54
2024/01/04 09:22:44;;;;;;;6.32;1.58;;;;;;;;;;4981382;28;20046;-54
2024/01/04 09:25:10;;;;;;;6.18;1.60;;;;;;;;;;4981171;28;20466;-54
2024/01/04 09:27:36;;;;;;;5.93;1.90;;;;;;;;;;4976056;28;20169;-55
2024/01/04 09:30:02;;;;;;;4.65;1.88;;;;;;;;;;4978906;28;20089;-50
2024/01/04 09:32:29;;;;;;;6.45;1.77;;;;;;;;;;4977800;28;20043;-50
2024/01/04 09:34:55;;;;;;;6.22;1.35;;;;;;;;;;4979375;28;20050;-53
2024/01/04 09:37:21;;;;;;;5.10;1.08;;;;;;;;;;4977057;28;20049;-53
2024/01/04 09:39:47;;;;;;;5.78;1.30;;;5.20;99.90;;;;;;4978092;28;20046;-54
2024/01/04 09:42:15;;;;;;;4.30;1.88;;;;;;;;;;4980191;28;20076;-53
2024/01/04 09:44:42;;;;;;;3.50;0.88;;;;;;;;;;4983117;28;20044;-53
2024/01/04 09:47:09;;;;;;;3.97;0.95;;;;;;;;;;4983217;28;20073;-52
2024/01/04 09:49:39;;;;;;;6.45;1.45;;;;;;;;;;4977775;28;20050;-54
2024/01/04 09:52:06;;;;;;;6.15;1.38;;;;;;;;;;4982397;28;20042;-54
2024/01/04 09:54:32;;;;;;;5.60;1.30;;;5.50;99.90;;;;;;4981683;28;20050;-50
2024/01/04 09:57:00;;;;;;;7.20;1.50;;;;;;;;;;4979077;28;20049;-52
2024/01/04 09:59:26;;;;;;;4.97;1.70;;;;;;;;;;4978258;28;20049;-52
2024/01/04 10:01:52;;;;;;;5.70;2.47;;;;;;;;;;4981141;28;20642;-51
2024/01/04 10:04:18;;;;;;;6.38;1.70;;;;;;;;;;4981175;28;20168;-52
2024/01/04 10:06:45;;;;;;;4.20;1.20;;;;;;;;;;4981452;28;20130;-51
2024/01/04 10:09:24;;;;;;;8.60;3.28;;;;;;;;;;4981626;28;20042;-51
2024/01/04 10:12:02;;;;;;;8.23;3.05;;;5.90;99.90;;;;;;4980953;28;20563;-50
2024/01/04 10:14:29;;;;;;;7.15;2.63;;;;;;;;;;4981739;28;20046;-53
2024/01/04 10:16:56;;;;;;;12.68;4.25;;;;;;;;;;4982999;28;20049;-53
2024/01/04 10:19:23;;;;;;;9.82;4.90;;;5.80;99.90;;;;;;4979774;28;20057;-51
2024/01/04 10:21:49;;;;;;;5.20;1.80;;;5.80;99.90;;;;;;4977400;28;20038;-53
2024/01/04 10:24:20;;;;;;;4.90;1.70;;;;;;;;;;4977735;28;20504;-50
2024/01/04 10:26:54;;;;;;;4.40;1.35;;;;;;;;;;4981967;28;20454;-53
2024/01/04 10:29:20;;;;;;;5.13;1.60;;;;;;;;;;4979049;28;20505;-50
2024/01/04 10:31:47;;;;;;;4.03;1.13;;;;;;;;;;4980019;28;20121;-52
2024/01/04 10:34:17;;;;;;;3.47;1.10;;;;;;;;;;4978341;28;20069;-52
2024/01/04 10:36:43;;;;;;;4.05;1.10;;;;;;;;;;4974984;28;20108;-52
2024/01/04 10:39:09;;;;;;;3.22;1.15;;;;;;;;;;4979187;28;20126;-49
2024/01/04 10:41:35;;;;;;;5.32;1.20;;;;;;;;;;4980839;28;20043;-52
2024/01/04 10:44:05;;;;;;;4.03;1.13;;;;;;;;;;4978398;28;20061;-53
2024/01/04 10:46:34;;;;;;;2.88;1.00;;;;;;;;;;4982812;28;20049;-51
2024/01/04 10:49:02;;;;;;;5.80;1.33;;;;;;;;;;4981776;28;20042;-49
2024/01/04 10:51:31;;;;;;;3.60;1.08;;;;;;;;;;4978315;28;20100;-50
2024/01/04 10:54:01;;;;;;;6.50;2.10;;;5.70;99.90;;;;;;4998843;28;20138;-51
2024/01/04 10:56:32;;;;;;;4.10;1.23;;;;;;;;;;4985385;28;20542;-52
2024/01/04 10:58:59;;;;;;;4.95;1.60;;;;;;;;;;4981587;28;20084;-52
2024/01/04 11:01:25;;;;;;;4.63;1.42;;;5.80;99.90;;;;;;4978888;28;20166;-50
2024/01/04 11:03:57;;;;;;;3.45;1.20;;;;;;;;;;4981628;28;20046;-52
2024/01/04 11:06:23;;;;;;;3.80;1.10;;;;;;;;;;4980008;28;20194;-50
2024/01/04 11:08:50;;;;;;;3.50;1.20;;;;;;;;;;4982282;28;20126;-51
2024/01/04 11:11:18;;;;;;;5.07;1.35;;;;;;;;;;4978883;28;20122;-49
2024/01/04 11:13:44;;;;;;;4.80;1.30;;;;;;;;;;4983121;28;20046;-50
2024/01/04 11:16:19;;;;;;;5.20;1.80;;;;;;;;;;4981746;28;20080;-52
2024/01/04 11:18:52;;;;;;;4.03;1.23;;;;;;;;;;4986502;28;20168;-52
2024/01/04 11:21:37;;;;;;;5.22;1.42;;;;;;;;;;4990685;28;20092;-50
2024/01/04 11:24:08;;;;;;;5.43;1.15;;;;;;;;;;4991454;28;20046;-51
2024/01/04 11:26:34;;;;;;;2.63;0.95;;;;;;;;;;4988529;28;20066;-53
2024/01/04 11:29:06;;;;;;;3.60;1.00;;;6.60;99.90;;;;;;4966372;28;20185;-50
2024/01/04 11:31:32;;;;;;;4.63;1.55;;;6.60;99.90;;;;;;4986741;28;20128;-50
2024/01/04 11:34:03;;;;;;;4.68;1.50;;;6.70;99.90;;;;;;4989343;28;20207;-50
2024/01/04 11:36:29;;;;;;;6.95;1.35;;;6.80;99.90;;;;;;4990183;28;20201;-50
2024/01/04 11:38:57;;;;;;;4.00;1.45;;;6.50;99.90;;;;;;4990493;28;20062;-50
2024/01/04 11:41:37;;;;;;;6.25;1.40;;;6.60;99.90;;;;;;4989850;28;20389;-54
2024/01/04 11:44:14;;;;;;;6.13;1.30;;;6.20;99.90;;;;;;4987612;28;20121;-49
2024/01/04 11:46:42;;;;;;;5.25;1.50;;;;;;;;;;4990606;28;20034;-49
2024/01/04 11:49:08;;;;;;;5.18;1.30;;;;;;;;;;4988245;28;20042;-49
2024/01/04 11:51:49;;;;;;;4.32;1.30;;;6.30;99.90;;;;;;4983249;28;20561;-51
2024/01/04 11:54:17;;;;;;;5.80;1.50;;;6.10;99.90;;;;;;4988332;28;20042;-49
2024/01/04 11:56:43;;;;;;;4.93;1.70;;;;;;;;;;4985730;28;20053;-51
2024/01/04 11:59:13;;;;;;;4.95;1.30;;;;;;;;;;4987811;28;20038;-54
2024/01/04 12:01:40;;;;;;;4.90;1.30;;;;;;;;;;4989168;28;20494;-53
2024/01/04 12:04:09;;;;;;;6.60;1.40;;;;;;;;;;4988078;28;20622;-49
2024/01/04 12:06:39;;;;;;;6.65;2.05;;;;;;;;;;4985388;28;20124;-53
2024/01/04 12:09:06;;;;;;;5.07;1.35;;;;;;;;;;4989942;28;20042;-52
2024/01/04 12:11:36;;;;;;;4.32;1.20;;;;;;;;;;4988997;28;20038;-54
2024/01/04 12:14:03;;;;;;;5.90;1.38;;;;;;;;;;4990383;28;20034;-51
2024/01/04 12:16:30;;;;;;;5.55;1.20;;;;;;;;;;4989157;28;20057;-50
2024/01/04 12:18:57;;;;;;;5.20;1.20;;;;;;;;;;4988185;28;20081;-54
2024/01/04 12:21:24;;;;;;;4.75;1.67;;;;;;;;;;4987800;28;20060;-49
2024/01/04 12:23:51;;;;;;;5.45;1.52;;;;;;;;;;4987426;28;20053;-52
2024/01/04 12:26:18;;;;;;;6.60;1.65;;;7.00;99.90;;;;;;4991280;28;20042;-51
2024/01/04 12:28:44;;;;;;;7.30;2.33;;;;;;;;;;4988643;28;20057;-53
2024/01/04 12:31:11;;;;;;;5.18;1.92;;;6.90;99.90;;;;;;4989966;28;20150;-53
2024/01/04 12:33:39;;;;;;;5.78;1.50;;;;;;;;;;4989147;28;20038;-51
2024/01/04 12:36:05;;;;;;;4.20;1.30;;;7.00;99.90;;;;;;4988390;28;20520;-50
2024/01/04 12:38:31;;;;;;;7.90;1.50;;;;;;;;;;4988350;28;20038;-50
2024/01/04 12:40:57;;;;;;;4.50;1.60;;;;;;;;;;4989538;28;20117;-51
2024/01/04 12:43:24;;;;;;;4.60;1.90;;;;;;;;;;4989025;28;20046;-50
2024/01/04 12:46:19;;;;;;;6.13;1.58;;;;;;;;;;4988628;28;20042;-50
2024/01/04 12:48:45;;;;;;;;;;;;;;;;;;4979490;28;20112;-49
2024/01/04 12:51:14;;;;;;;4.20;1.33;;;;;;;;;;4989389;28;19918;-52
2024/01/04 12:53:41;;;;;;;6.22;1.50;;;6.70;99.90;;;;;;4987735;28;20113;-49
2024/01/04 12:56:09;;;;;;;4.97;1.15;;;;;;;;;;4986256;28;20038;-50
2024/01/04 12:58:34;;;;;;;4.72;1.33;;;6.60;99.90;;;;;;4987263;28;20053;-49
2024/01/04 13:01:00;;;;;;;4.57;1.30;;;6.60;99.90;;;;;;4988359;28;20030;-49
2024/01/04 13:03:26;;;;;;;3.25;1.00;;;6.70;99.90;;;;;;4986761;28;20517;-50
2024/01/04 13:05:51;;;;;;;4.35;1.20;;;6.70;99.90;;;;;;4989095;28;20050;-50
2024/01/04 13:08:18;;;;;;;4.95;1.63;;;;;;;;;;4984385;28;20043;-49
2024/01/04 13:10:44;;;;;;;4.97;1.45;;;6.90;99.90;;;;;;4989565;28;20117;-49
2024/01/04 13:13:10;;;;;;;4.65;1.30;;;6.80;99.90;;;;;;4988975;28;20109;-50
2024/01/04 13:15:36;;;;;;;3.42;1.10;;;;;;;;;;4983808;28;20405;-52
2024/01/04 13:18:02;;;;;;;6.88;1.30;;;;;;;;;;4987689;28;20042;-49
2024/01/04 13:20:28;;;;;;;4.72;1.10;;;;;;;;;;4987677;28;20137;-48
2024/01/04 13:22:54;;;;;;;5.00;1.23;;;6.70;99.90;;;;;;4989262;28;20121;-51
2024/01/04 13:25:21;;;;;;;4.28;1.20;;;6.60;99.90;;;;;;4984280;28;20046;-51
2024/01/04 13:27:47;;;;;;;4.50;1.40;;;;;;;;;;4989077;28;20097;-49
2024/01/04 13:30:15;;;;;;;4.30;1.10;;;6.70;99.90;;;;;;4987417;28;20034;-50
2024/01/04 13:32:41;;;;;;;4.40;1.50;;;6.60;99.90;;;;;;4988321;28;20097;-51
2024/01/04 13:35:07;;;;;;;5.28;1.10;;;;;;;;;;4987296;28;20046;-53
2024/01/04 13:37:33;;;;;;;4.90;1.23;;;;;;;;;;4988069;28;20073;-49
2024/01/04 13:39:59;;;;;;;3.28;1.00;;;;;;;;;;4988106;28;20046;-53
2024/01/04 13:42:25;;;;;;;4.50;1.10;;;;;;;;;;4987462;28;20038;-50
2024/01/04 13:44:51;;;;;;;3.47;1.05;;;6.30;99.90;;;;;;4988937;28;20124;-51
2024/01/04 13:47:16;;;;;;;4.93;1.30;;;6.40;99.90;;;;;;4986405;28;20077;-50
2024/01/04 13:49:43;;;;;;;4.78;1.40;;;;;;;;;;4983215;28;20039;-49
2024/01/04 13:52:08;;;;;;;4.80;1.52;;;6.30;99.90;;;;;;4987867;28;20058;-53
2024/01/04 13:54:34;;;;;;;4.28;1.20;;;;;;;;;;4983965;28;20510;-49
2024/01/04 13:57:00;;;;;;;4.60;1.50;;;;;;;;;;4988752;28;20077;-49
2024/01/04 13:59:30;;;;;;;3.28;1.10;;;;;;;;;;4985732;28;20516;-52
2024/01/04 14:01:57;;;;;;;4.35;1.30;;;;;;;;;;4988791;28;20573;-48
2024/01/04 14:04:22;;;;;;;4.50;1.50;;;6.20;99.90;;;;;;4987967;28;20042;-51
2024/01/04 14:06:48;;;;;;;5.30;1.52;;;6.40;99.90;;;;;;4988394;28;20049;-49
2024/01/04 14:09:14;;;;;;;7.20;1.90;;;6.20;99.90;;;;;;4986422;28;20038;-51
2024/01/04 14:11:40;;;;;;;4.68;1.55;;;;;;;;;;4980942;28;20129;-51
2024/01/04 14:14:07;;;;;;;4.63;1.33;;;6.10;99.90;;;;;;4988803;28;20101;-48
2024/01/04 14:16:33;;;;;;;4.25;1.20;;;6.20;99.90;;;;;;4980149;28;20117;-49
2024/01/04 14:18:59;;;;;;;7.70;1.48;;;6.10;99.90;;;;;;4990768;28;20137;-50